createdAt,value
2018-08-14T00:00:44.240Z,19.39
2018-08-14T00:03:14.651Z,19.39
2018-08-14T00:05:44.524Z,19.37
2018-08-14T00:08:14.254Z,19.38
2018-08-14T00:10:43.452Z,19.35
2018-08-14T00:13:14.171Z,19.38
2018-08-14T00:15:44.917Z,19.42
2018-08-14T00:18:14.176Z,19.39
2018-08-14T00:20:43.535Z,19.37
2018-08-14T00:23:12.778Z,19.35
2018-08-14T00:25:42.009Z,19.35
2018-08-14T00:28:12.102Z,19.37
2018-08-14T00:30:41.564Z,19.37
2018-08-14T00:33:11.436Z,19.34
2018-08-14T00:35:40.613Z,19.37
2018-08-14T00:38:09.892Z,19.35
2018-08-14T00:40:39.110Z,19.34
2018-08-14T00:43:09.941Z,19.34
2018-08-14T00:45:39.190Z,19.33
2018-08-14T00:48:09.081Z,19.32
2018-08-14T00:50:38.270Z,19.33
2018-08-14T00:53:07.717Z,19.33
2018-08-14T00:55:36.921Z,19.33
2018-08-14T00:58:06.440Z,19.30
2018-08-14T01:00:36.394Z,19.32
2018-08-14T01:03:05.910Z,19.32
2018-08-14T01:05:35.177Z,19.31
2018-08-14T01:08:04.441Z,19.30
2018-08-14T01:10:33.626Z,19.32
2018-08-14T01:13:02.854Z,19.31
2018-08-14T01:15:32.062Z,19.25
2018-08-14T01:18:01.275Z,19.25
2018-08-14T01:20:31.238Z,19.22
2018-08-14T01:23:01.135Z,19.22
2018-08-14T01:25:32.564Z,19.23
2018-08-14T01:28:01.798Z,19.22
2018-08-14T01:30:31.657Z,19.21
2018-08-14T01:33:00.908Z,19.18
2018-08-14T01:35:30.170Z,19.16
2018-08-14T01:37:59.339Z,19.15
2018-08-14T01:40:28.846Z,19.12
2018-08-14T01:42:58.149Z,19.11
2018-08-14T01:45:27.381Z,19.10
2018-08-14T01:47:56.664Z,19.14
2018-08-14T01:50:27.184Z,19.13
2018-08-14T01:52:56.494Z,19.12
2018-08-14T01:55:25.981Z,19.12
2018-08-14T01:57:55.808Z,19.12
2018-08-14T02:00:26.047Z,19.07
2018-08-14T02:02:55.245Z,19.03
2018-08-14T02:05:24.461Z,18.99
2018-08-14T02:07:53.832Z,18.97
2018-08-14T02:10:23.926Z,18.92
2018-08-14T02:12:53.123Z,18.87
2018-08-14T02:15:22.482Z,18.83
2018-08-14T02:17:51.714Z,18.82
2018-08-14T02:20:22.801Z,18.79
2018-08-14T02:22:53.397Z,18.80
2018-08-14T02:25:22.560Z,18.79
2018-08-14T02:27:51.914Z,18.80
2018-08-14T02:30:21.164Z,18.80
2018-08-14T02:32:50.339Z,18.79
2018-08-14T02:35:19.538Z,18.78
2018-08-14T02:37:48.777Z,18.74
2018-08-14T02:40:20.268Z,18.71
2018-08-14T02:42:50.288Z,18.68
2018-08-14T02:45:19.606Z,18.64
2018-08-14T02:47:48.833Z,18.62
2018-08-14T02:50:18.121Z,18.59
2018-08-14T02:52:47.366Z,18.57
2018-08-14T02:55:18.672Z,18.53
2018-08-14T02:57:47.938Z,18.51
2018-08-14T03:00:27.156Z,18.48
2018-08-14T03:02:56.953Z,18.47
2018-08-14T03:05:26.348Z,18.45
2018-08-14T03:07:55.753Z,18.42
2018-08-14T03:10:24.986Z,18.38
2018-08-14T03:12:54.287Z,18.34
2018-08-14T03:15:23.691Z,18.31
2018-08-14T03:17:55.016Z,18.29
2018-08-14T03:20:24.241Z,18.26
2018-08-14T03:22:53.652Z,18.24
2018-08-14T03:25:22.850Z,18.23
2018-08-14T03:27:52.131Z,18.22
2018-08-14T03:30:21.329Z,18.16
2018-08-14T03:32:50.618Z,18.13
2018-08-14T03:35:19.826Z,18.09
2018-08-14T03:37:49.023Z,18.07
2018-08-14T03:40:19.297Z,18.06
2018-08-14T03:42:49.523Z,18.07
2018-08-14T03:45:18.805Z,18.07
2018-08-14T03:47:48.027Z,18.09
2018-08-14T03:50:17.236Z,18.11
2018-08-14T03:52:46.483Z,18.13
2018-08-14T03:55:18.182Z,18.17
2018-08-14T03:57:47.364Z,18.22
2018-08-14T04:00:18.340Z,18.24
2018-08-14T04:02:47.590Z,18.28
2018-08-14T04:05:16.905Z,18.35
2018-08-14T04:07:46.145Z,18.38
2018-08-14T04:10:15.664Z,18.43
2018-08-14T04:12:44.897Z,18.46
2018-08-14T04:15:14.862Z,18.50
2018-08-14T04:17:44.042Z,18.57
2018-08-14T04:20:13.930Z,18.63
2018-08-14T04:22:43.277Z,18.68
2018-08-14T04:25:12.681Z,18.74
2018-08-14T04:27:41.893Z,18.77
2018-08-14T04:30:13.119Z,18.81
2018-08-14T04:32:43.550Z,18.85
2018-08-14T04:35:13.134Z,18.90
2018-08-14T04:37:42.580Z,18.94
2018-08-14T04:40:12.758Z,18.97
2018-08-14T04:42:42.709Z,19.00
2018-08-14T04:45:12.052Z,19.02
2018-08-14T04:47:41.302Z,19.04
2018-08-14T04:50:12.339Z,19.05
2018-08-14T04:52:41.983Z,19.09
2018-08-14T04:55:11.888Z,19.12
2018-08-14T04:57:41.771Z,19.16
2018-08-14T05:00:13.021Z,19.19
2018-08-14T05:02:42.385Z,19.25
2018-08-14T05:05:12.699Z,19.33
2018-08-14T05:07:41.976Z,19.37
2018-08-14T05:10:13.387Z,19.41
2018-08-14T05:12:42.653Z,19.45
2018-08-14T05:15:11.885Z,19.51
2018-08-14T05:17:41.511Z,19.52
2018-08-14T05:20:12.675Z,19.59
2018-08-14T05:22:42.454Z,19.59
2018-08-14T05:25:11.826Z,19.63
2018-08-14T05:27:41.501Z,19.64
2018-08-14T05:30:13.805Z,19.67
2018-08-14T05:32:43.154Z,19.68
2018-08-14T05:35:12.494Z,19.72
2018-08-14T05:37:41.750Z,19.71
2018-08-14T05:40:11.645Z,19.69
2018-08-14T05:42:40.920Z,19.76
2018-08-14T05:45:12.187Z,19.79
2018-08-14T05:47:41.461Z,19.83
2018-08-14T05:50:12.641Z,19.88
2018-08-14T05:52:42.072Z,19.92
2018-08-14T05:55:12.041Z,19.93
2018-08-14T05:57:41.347Z,19.96
2018-08-14T06:00:13.986Z,20.00
2018-08-14T06:02:43.209Z,20.05
2018-08-14T06:05:12.469Z,20.06
2018-08-14T06:07:41.933Z,20.03
2018-08-14T06:10:11.355Z,20.10
2018-08-14T06:12:40.515Z,20.18
2018-08-14T06:15:11.969Z,20.15
2018-08-14T06:17:41.193Z,20.14
2018-08-14T06:20:12.225Z,20.10
2018-08-14T06:22:41.841Z,20.12
2018-08-14T06:25:11.865Z,20.18
2018-08-14T06:27:41.554Z,20.20
2018-08-14T06:30:17.433Z,20.21
2018-08-14T06:32:47.850Z,20.17
2018-08-14T06:35:17.219Z,20.22
2018-08-14T06:37:46.499Z,20.21
2018-08-14T06:40:17.025Z,20.23
2018-08-14T06:42:46.326Z,20.24
2018-08-14T06:45:16.724Z,20.23
2018-08-14T06:47:46.040Z,20.21
2018-08-14T06:50:17.994Z,20.23
2018-08-14T06:52:47.188Z,20.27
2018-08-14T06:55:16.852Z,20.32
2018-08-14T06:57:46.705Z,20.39
2018-08-14T07:00:17.550Z,20.50
2018-08-14T07:02:47.439Z,20.57
2018-08-14T07:05:16.697Z,20.68
2018-08-14T07:07:45.900Z,20.81
2018-08-14T07:10:15.257Z,20.96
2018-08-14T07:12:45.608Z,21.08
2018-08-14T07:15:18.986Z,21.12
2018-08-14T07:17:48.372Z,21.15
2018-08-14T07:20:17.611Z,21.07
2018-08-14T07:22:47.088Z,21.10
2018-08-14T07:25:17.898Z,21.10
2018-08-14T07:27:47.195Z,21.10
2018-08-14T07:30:18.456Z,21.12
2018-08-14T07:32:48.280Z,21.20
2018-08-14T07:35:17.585Z,21.16
2018-08-14T07:37:47.196Z,21.10
2018-08-14T07:40:16.383Z,21.16
2018-08-14T07:42:45.592Z,21.17
2018-08-14T07:45:16.283Z,21.17
2018-08-14T07:47:45.542Z,21.16
2018-08-14T07:50:15.425Z,21.21
2018-08-14T07:52:45.524Z,21.27
2018-08-14T07:55:14.830Z,21.35
2018-08-14T07:57:44.297Z,21.46
2018-08-14T08:00:18.644Z,21.56
2018-08-14T08:02:48.910Z,21.70
2018-08-14T08:05:18.689Z,21.86
2018-08-14T08:07:48.173Z,21.95
2018-08-14T08:10:19.660Z,22.06
2018-08-14T08:12:49.295Z,22.23
2018-08-14T08:15:19.548Z,22.36
2018-08-14T08:17:49.265Z,22.45
2018-08-14T08:20:26.700Z,22.53
2018-08-14T08:22:55.985Z,22.62
2018-08-14T08:25:26.417Z,22.80
2018-08-14T08:27:56.444Z,22.84
2018-08-14T08:30:25.933Z,22.77
2018-08-14T08:32:55.486Z,22.82
2018-08-14T08:35:25.672Z,22.80
2018-08-14T08:37:55.028Z,22.89
2018-08-14T08:40:24.378Z,22.85
2018-08-14T08:42:53.608Z,22.87
2018-08-14T08:45:22.899Z,22.77
2018-08-14T08:48:01.868Z,22.90
2018-08-14T08:50:31.436Z,22.88
2018-08-14T08:53:00.681Z,22.83
2018-08-14T08:55:29.919Z,22.80
2018-08-14T08:57:59.251Z,22.61
2018-08-14T09:00:28.444Z,22.40
2018-08-14T09:02:57.690Z,22.42
2018-08-14T09:05:44.539Z,22.33
2018-08-14T09:08:15.954Z,22.22
2018-08-14T09:10:45.158Z,22.24
2018-08-14T09:13:16.461Z,22.30
2018-08-14T09:15:45.709Z,22.25
2018-08-14T09:18:14.992Z,22.30
2018-08-14T09:20:44.209Z,22.40
2018-08-14T09:23:13.436Z,22.61
2018-08-14T09:25:42.701Z,22.75
2018-08-14T09:28:11.925Z,22.92
2018-08-14T09:30:41.166Z,23.07
2018-08-14T09:33:11.422Z,23.21
2018-08-14T09:35:40.691Z,23.46
2018-08-14T09:38:09.890Z,23.92
2018-08-14T09:40:48.035Z,24.23
2018-08-14T09:43:17.240Z,24.50
2018-08-14T09:45:47.862Z,24.59
2018-08-14T09:48:17.090Z,24.60
2018-08-14T09:50:46.390Z,24.51
2018-08-14T09:53:15.590Z,24.60
2018-08-14T09:55:44.749Z,24.54
2018-08-14T09:58:14.741Z,24.39
2018-08-14T10:00:49.268Z,24.35
2018-08-14T10:03:23.847Z,24.33
2018-08-14T10:05:58.205Z,24.29
2018-08-14T10:08:27.377Z,24.60
2018-08-14T10:10:56.730Z,24.76
2018-08-14T10:13:25.957Z,24.88
2018-08-14T10:15:55.165Z,24.84
2018-08-14T10:18:25.449Z,24.84
2018-08-14T10:20:54.966Z,24.67
2018-08-14T10:23:25.363Z,24.59
2018-08-14T10:25:54.604Z,24.66
2018-08-14T10:28:25.041Z,24.62
2018-08-14T10:30:54.627Z,24.63
2018-08-14T10:33:23.818Z,24.62
2018-08-14T10:35:53.039Z,24.59
2018-08-14T10:38:22.423Z,24.66
2018-08-14T10:40:51.593Z,24.60
2018-08-14T10:43:20.956Z,24.37
2018-08-14T10:45:50.289Z,24.20
2018-08-14T10:48:19.528Z,24.04
2018-08-14T10:50:48.853Z,23.58
2018-08-14T10:53:18.055Z,23.74
2018-08-14T10:55:47.299Z,23.66
2018-08-14T10:58:16.545Z,23.68
2018-08-14T11:00:45.748Z,23.59
2018-08-14T11:03:15.021Z,23.53
2018-08-14T11:05:44.741Z,23.58
2018-08-14T11:08:13.906Z,23.57
2018-08-14T11:10:48.248Z,23.65
2018-08-14T11:13:17.389Z,23.64
2018-08-14T11:15:46.618Z,23.77
2018-08-14T11:18:15.855Z,23.91
2018-08-14T11:20:45.066Z,23.93
2018-08-14T11:23:14.470Z,24.07
2018-08-14T11:25:43.751Z,24.05
2018-08-14T11:28:12.977Z,24.01
2018-08-14T11:30:42.214Z,24.00
2018-08-14T11:33:11.866Z,23.98
2018-08-14T11:35:46.277Z,24.05
2018-08-14T11:38:16.216Z,24.20
2018-08-14T11:40:45.468Z,24.27
2018-08-14T11:43:14.643Z,24.34
2018-08-14T11:45:45.409Z,24.26
2018-08-14T11:48:14.581Z,24.75
2018-08-14T11:50:43.775Z,24.92
2018-08-14T11:53:12.922Z,24.95
2018-08-14T11:55:42.113Z,24.82
2018-08-14T11:58:11.312Z,24.83
2018-08-14T12:00:40.563Z,24.86
2018-08-14T12:03:09.850Z,24.87
2018-08-14T12:05:39.096Z,24.88
2018-08-14T12:08:08.345Z,24.98
2018-08-14T12:10:37.550Z,25.14
2018-08-14T12:13:06.913Z,25.22
2018-08-14T12:15:36.172Z,25.43
2018-08-14T12:18:05.561Z,25.53
2018-08-14T12:20:34.808Z,25.57
2018-08-14T12:23:04.013Z,25.45
2018-08-14T12:25:33.202Z,25.47
2018-08-14T12:28:02.524Z,25.76
2018-08-14T12:30:32.727Z,25.83
2018-08-14T12:33:01.937Z,26.00
2018-08-14T12:35:31.209Z,26.22
2018-08-14T12:38:00.396Z,26.32
2018-08-14T12:40:30.169Z,26.47
2018-08-14T12:42:59.368Z,26.58
2018-08-14T12:45:28.563Z,26.71
2018-08-14T12:47:57.785Z,26.97
2018-08-14T12:50:27.013Z,27.09
2018-08-14T12:52:56.324Z,27.39
2018-08-14T12:55:25.497Z,27.41
2018-08-14T12:57:54.721Z,27.56
2018-08-14T13:00:26.830Z,27.50
2018-08-14T13:02:56.414Z,27.42
2018-08-14T13:05:26.188Z,27.49
2018-08-14T13:07:55.563Z,27.17
2018-08-14T13:10:24.840Z,26.98
2018-08-14T13:12:54.090Z,27.02
2018-08-14T13:15:23.348Z,26.89
2018-08-14T13:18:04.208Z,26.87
2018-08-14T13:20:33.752Z,26.81
2018-08-14T13:23:03.049Z,26.87
2018-08-14T13:25:32.320Z,26.74
2018-08-14T13:28:01.600Z,26.43
2018-08-14T13:30:30.817Z,26.34
2018-08-14T13:33:00.025Z,26.14
2018-08-14T13:35:29.322Z,25.98
2018-08-14T13:37:58.528Z,26.06
2018-08-14T13:40:27.740Z,25.96
2018-08-14T13:42:56.965Z,25.90
2018-08-14T13:45:26.180Z,25.79
2018-08-14T13:47:55.410Z,25.86
2018-08-14T13:50:24.612Z,26.14
2018-08-14T13:52:53.842Z,26.71
2018-08-14T13:55:23.075Z,27.00
2018-08-14T13:57:52.333Z,27.20
2018-08-14T14:00:24.550Z,27.16
2018-08-14T14:02:53.966Z,27.42
2018-08-14T14:05:23.159Z,27.33
2018-08-14T14:07:52.401Z,27.25
2018-08-14T14:10:22.139Z,27.05
2018-08-14T14:12:51.311Z,26.70
2018-08-14T14:15:22.694Z,26.53
2018-08-14T14:17:53.148Z,26.50
2018-08-14T14:20:27.528Z,26.74
2018-08-14T14:22:56.846Z,26.85
2018-08-14T14:25:26.096Z,26.68
2018-08-14T14:27:55.309Z,26.32
2018-08-14T14:30:24.570Z,25.99
2018-08-14T14:32:53.748Z,25.94
2018-08-14T14:35:22.964Z,25.81
2018-08-14T14:37:52.420Z,25.82
2018-08-14T14:40:24.980Z,25.70
2018-08-14T14:42:55.888Z,25.66
2018-08-14T14:45:25.262Z,25.38
2018-08-14T14:47:54.617Z,25.27
2018-08-14T14:50:23.849Z,25.14
2018-08-14T14:52:53.111Z,25.16
2018-08-14T14:55:22.958Z,25.10
2018-08-14T14:57:52.745Z,25.11
2018-08-14T15:00:23.193Z,25.10
2018-08-14T15:02:53.574Z,25.09
2018-08-14T15:05:23.163Z,24.98
2018-08-14T15:07:52.682Z,24.93
2018-08-14T15:10:22.151Z,24.85
2018-08-14T15:12:51.457Z,24.92
2018-08-14T15:15:20.759Z,24.90
2018-08-14T15:17:50.769Z,24.97
2018-08-14T15:20:22.969Z,25.10
2018-08-14T15:22:53.313Z,25.15
2018-08-14T15:25:23.415Z,25.06
2018-08-14T15:29:07.566Z,24.96
2018-08-14T15:31:38.405Z,24.86
2018-08-14T15:34:09.458Z,24.82
2018-08-14T15:36:38.662Z,24.84
2018-08-14T15:39:12.134Z,24.92
2018-08-14T15:41:41.709Z,24.95
2018-08-14T15:44:11.335Z,25.16
2018-08-14T15:46:40.596Z,25.15
2018-08-14T15:49:10.392Z,25.28
2018-08-14T15:51:39.841Z,25.32
2018-08-14T15:54:09.859Z,25.39
2018-08-14T15:56:39.363Z,25.50
2018-08-14T15:59:09.074Z,25.44
2018-08-14T16:01:38.339Z,25.39
2018-08-14T16:04:08.791Z,25.38
2018-08-14T16:06:38.029Z,25.30
2018-08-14T16:09:12.568Z,25.26
2018-08-14T16:11:42.098Z,25.22
2018-08-14T16:14:11.622Z,25.30
2018-08-14T16:16:40.846Z,25.19
2018-08-14T16:19:10.971Z,25.09
2018-08-14T16:21:40.416Z,25.08
2018-08-14T16:24:09.866Z,25.00
2018-08-14T16:26:39.155Z,25.03
2018-08-14T16:29:08.848Z,25.01
2018-08-14T16:31:38.104Z,24.98
2018-08-14T16:34:07.506Z,24.84
2018-08-14T16:36:36.763Z,24.89
2018-08-14T16:39:08.622Z,24.68
2018-08-14T16:41:37.835Z,24.67
2018-08-14T16:44:07.089Z,24.67
2018-08-14T16:46:36.366Z,24.63
2018-08-14T16:49:06.065Z,24.59
2018-08-14T16:51:35.312Z,24.59
2018-08-14T16:54:04.638Z,24.50
2018-08-14T16:56:33.837Z,24.44
2018-08-14T16:59:03.045Z,24.39
2018-08-14T17:01:32.292Z,24.34
2018-08-14T17:04:01.490Z,24.27
2018-08-14T17:06:30.670Z,24.28
2018-08-14T17:08:59.833Z,24.17
2018-08-14T17:11:29.024Z,24.11
2018-08-14T17:13:58.468Z,24.06
2018-08-14T17:16:27.776Z,23.97
2018-08-14T17:18:57.363Z,23.94
2018-08-14T17:21:25.354Z,23.90
2018-08-14T17:23:55.169Z,23.78
2018-08-14T17:26:24.807Z,23.71
2018-08-14T17:28:54.194Z,23.59
2018-08-14T17:31:23.527Z,23.55
2018-08-14T17:33:52.945Z,23.56
2018-08-14T17:36:23.517Z,23.48
2018-08-14T17:38:53.048Z,23.40
2018-08-14T17:41:22.741Z,23.26
2018-08-14T17:43:52.481Z,23.20
2018-08-14T17:46:22.050Z,23.10
2018-08-14T17:48:51.634Z,22.95
2018-08-14T17:51:21.607Z,22.93
2018-08-14T17:53:51.022Z,22.89
2018-08-14T17:56:20.205Z,22.84
2018-08-14T17:58:49.501Z,22.74
2018-08-14T18:01:19.387Z,22.63
2018-08-14T18:03:48.834Z,22.53
2018-08-14T18:06:18.089Z,22.42
2018-08-14T18:08:47.267Z,22.33
2018-08-14T18:11:16.528Z,22.23
2018-08-14T18:13:45.732Z,22.17
2018-08-14T18:16:14.873Z,22.11
2018-08-14T18:18:44.077Z,22.01
2018-08-14T18:21:13.313Z,21.93
2018-08-14T18:23:42.532Z,21.85
2018-08-14T18:26:11.698Z,21.73
2018-08-14T18:28:40.837Z,21.64
2018-08-14T18:31:10.131Z,21.69
2018-08-14T18:33:39.292Z,21.62
2018-08-14T18:36:08.421Z,21.54
2018-08-14T18:38:37.854Z,21.46
2018-08-14T18:41:07.270Z,21.36
2018-08-14T18:43:36.393Z,21.33
2018-08-14T18:46:05.641Z,21.30
2018-08-14T18:48:34.851Z,21.24
2018-08-14T18:51:04.303Z,21.24
2018-08-14T18:53:33.604Z,21.22
2018-08-14T18:56:02.776Z,21.19
2018-08-14T18:58:31.975Z,21.14
2018-08-14T19:01:01.158Z,21.02
2018-08-14T19:03:30.288Z,20.93
2018-08-14T19:05:59.566Z,20.91
2018-08-14T19:08:28.908Z,20.86
2018-08-14T19:10:58.118Z,20.84
2018-08-14T19:13:27.293Z,20.81
2018-08-14T19:15:56.421Z,20.75
2018-08-14T19:18:26.511Z,20.69
2018-08-14T19:20:55.676Z,20.63
2018-08-14T19:23:24.951Z,20.53
2018-08-14T19:25:54.226Z,20.44
2018-08-14T19:28:23.457Z,20.36
2018-08-14T19:30:52.663Z,20.29
2018-08-14T19:33:21.822Z,20.21
2018-08-14T19:35:51.008Z,20.13
2018-08-14T19:38:20.403Z,20.04
2018-08-14T19:40:49.571Z,19.96
2018-08-14T19:43:18.771Z,19.89
2018-08-14T19:45:47.947Z,19.81
2018-08-14T19:48:17.120Z,19.71
2018-08-14T19:50:46.391Z,19.67
2018-08-14T19:53:15.637Z,19.61
2018-08-14T19:55:44.808Z,19.55
2018-08-14T19:58:14.050Z,19.51
2018-08-14T20:00:43.486Z,19.48
2018-08-14T20:03:12.821Z,19.47
2018-08-14T20:05:41.965Z,19.42
2018-08-14T20:08:11.190Z,19.36
2018-08-14T20:10:40.370Z,19.37
2018-08-14T20:13:09.642Z,19.34
2018-08-14T20:15:43.938Z,19.28
2018-08-14T20:18:13.146Z,19.25
2018-08-14T20:20:42.340Z,19.22
2018-08-14T20:23:13.124Z,19.22
2018-08-14T20:25:42.445Z,19.17
2018-08-14T20:28:11.752Z,19.13
2018-08-14T20:30:40.971Z,19.11
2018-08-14T20:33:11.053Z,19.08
2018-08-14T20:35:40.277Z,19.04
2018-08-14T20:38:09.509Z,19.03
2018-08-14T20:40:38.725Z,19.00
2018-08-14T20:43:08.150Z,18.98
2018-08-14T20:45:37.375Z,18.97
2018-08-14T20:48:06.721Z,18.96
2018-08-14T20:50:35.935Z,18.95
2018-08-14T20:53:05.216Z,18.95
2018-08-14T20:55:34.398Z,18.98
2018-08-14T20:58:03.692Z,18.98
2018-08-14T21:00:32.934Z,19.04
2018-08-14T21:03:02.129Z,19.03
2018-08-14T21:05:31.338Z,19.01
2018-08-14T21:08:00.540Z,18.97
2018-08-14T21:10:29.733Z,18.94
2018-08-14T21:12:58.903Z,18.90
2018-08-14T21:15:33.217Z,18.88
2018-08-14T21:18:02.532Z,18.85
2018-08-14T21:20:31.667Z,18.83
2018-08-14T21:23:00.898Z,18.82
2018-08-14T21:25:30.149Z,18.80
2018-08-14T21:27:59.357Z,18.76
2018-08-14T21:30:28.573Z,18.75
2018-08-14T21:32:57.837Z,18.71
2018-08-14T21:35:27.396Z,18.67
2018-08-14T21:37:57.002Z,18.66
2018-08-14T21:40:26.170Z,18.73
2018-08-14T21:42:55.369Z,18.76
2018-08-14T21:45:24.646Z,18.76
2018-08-14T21:47:53.790Z,18.76
2018-08-14T21:50:22.933Z,18.73
2018-08-14T21:52:52.145Z,18.73
2018-08-14T21:55:21.326Z,18.72
2018-08-14T21:57:50.524Z,18.70
2018-08-14T22:00:23.438Z,18.69
2018-08-14T22:02:53.116Z,18.63
2018-08-14T22:05:22.369Z,18.59
2018-08-14T22:07:51.574Z,18.53
2018-08-14T22:10:21.262Z,18.50
2018-08-14T22:12:50.649Z,18.48
2018-08-14T22:15:20.267Z,18.46
2018-08-14T22:17:49.375Z,18.48
2018-08-14T22:20:18.593Z,18.51
2018-08-14T22:22:47.769Z,18.51
2018-08-14T22:25:17.049Z,18.53
2018-08-14T22:27:46.262Z,18.56
2018-08-14T22:30:15.482Z,18.66
2018-08-14T22:32:45.265Z,18.69
2018-08-14T22:35:17.422Z,18.65
2018-08-14T22:37:46.570Z,18.65
2018-08-14T22:40:15.761Z,18.66
2018-08-14T22:42:44.989Z,18.71
2018-08-14T22:45:14.186Z,18.72
2018-08-14T22:47:46.467Z,18.73
2018-08-14T22:50:15.730Z,18.74
2018-08-14T22:52:45.396Z,18.75
2018-08-14T22:55:14.578Z,18.76
2018-08-14T22:57:43.761Z,18.77
2018-08-14T23:00:16.022Z,18.80
2018-08-14T23:02:45.462Z,18.80
2018-08-14T23:05:15.220Z,18.77
2018-08-14T23:07:44.805Z,18.77
2018-08-14T23:10:14.741Z,18.76
2018-08-14T23:12:44.289Z,18.77
2018-08-14T23:15:14.035Z,18.78
2018-08-14T23:17:43.234Z,18.81
2018-08-14T23:20:13.610Z,18.88
2018-08-14T23:22:43.220Z,18.94
2018-08-14T23:25:13.244Z,18.92
2018-08-14T23:27:42.413Z,18.93
2018-08-14T23:30:14.113Z,18.94
2018-08-14T23:32:43.667Z,18.93
2018-08-14T23:35:12.893Z,18.93
2018-08-14T23:37:42.111Z,18.92
2018-08-14T23:40:13.113Z,18.90
2018-08-14T23:42:42.280Z,18.89
2018-08-14T23:45:12.062Z,18.89
2018-08-14T23:47:41.230Z,18.89
2018-08-14T23:50:11.872Z,18.89
2018-08-14T23:52:41.699Z,18.88
2018-08-14T23:55:12.150Z,18.89
2018-08-14T23:57:41.385Z,18.89
